sensor_id;sensor_type;location;lat;lon;timestamp;temperature;humidity
25536;DHT22;13431;51.352;6.412;2022-08-19T00:01:54;16.50;99.90
25536;DHT22;13431;51.352;6.412;2022-08-19T00:04:25;16.40;99.90
25536;DHT22;13431;51.352;6.412;2022-08-19T00:06:53;16.40;99.90
25536;DHT22;13431;51.352;6.412;2022-08-19T00:09:22;16.40;99.90
25536;DHT22;13431;51.352;6.412;2022-08-19T00:11:50;16.40;99.90
25536;DHT22;13431;51.352;6.412;2022-08-19T00:14:18;16.50;99.90
25536;DHT22;13431;51.352;6.412;2022-08-19T00:16:48;16.50;99.90
25536;DHT22;13431;51.352;6.412;2022-08-19T00:19:16;16.50;99.90
25536;DHT22;13431;51.352;6.412;2022-08-19T00:21:43;16.40;99.90
25536;DHT22;13431;51.352;6.412;2022-08-19T00:24:13;16.40;99.90
25536;DHT22;13431;51.352;6.412;2022-08-19T00:26:43;16.30;99.90
25536;DHT22;13431;51.352;6.412;2022-08-19T00:29:13;16.20;99.90
25536;DHT22;13431;51.352;6.412;2022-08-19T00:31:41;16.20;99.90
25536;DHT22;13431;51.352;6.412;2022-08-19T00:34:11;16.10;99.90
25536;DHT22;13431;51.352;6.412;2022-08-19T00:36:40;16.10;99.90
25536;DHT22;13431;51.352;6.412;2022-08-19T00:39:08;16.10;99.90
25536;DHT22;13431;51.352;6.412;2022-08-19T00:41:36;16.00;99.90
25536;DHT22;13431;51.352;6.412;2022-08-19T00:44:14;16.10;99.90
25536;DHT22;13431;51.352;6.412;2022-08-19T00:46:44;16.00;99.90
25536;DHT22;13431;51.352;6.412;2022-08-19T00:49:26;16.00;99.90
25536;DHT22;13431;51.352;6.412;2022-08-19T00:51:59;16.00;99.90
25536;DHT22;13431;51.352;6.412;2022-08-19T00:54:28;16.00;99.90
25536;DHT22;13431;51.352;6.412;2022-08-19T00:56:58;16.10;99.90
25536;DHT22;13431;51.352;6.412;2022-08-19T00:59:28;16.00;99.90
25536;DHT22;13431;51.352;6.412;2022-08-19T01:02:16;16.00;99.90
25536;DHT22;13431;51.352;6.412;2022-08-19T01:04:44;16.10;99.90
25536;DHT22;13431;51.352;6.412;2022-08-19T01:07:12;16.00;99.90
25536;DHT22;13431;51.352;6.412;2022-08-19T01:09:46;16.00;99.90
25536;DHT22;13431;51.352;6.412;2022-08-19T01:12:14;16.10;99.90
25536;DHT22;13431;51.352;6.412;2022-08-19T01:14:41;16.00;99.90
25536;DHT22;13431;51.352;6.412;2022-08-19T01:17:11;16.00;99.90
25536;DHT22;13431;51.352;6.412;2022-08-19T01:19:41;15.90;99.90
25536;DHT22;13431;51.352;6.412;2022-08-19T01:22:25;15.90;99.90
25536;DHT22;13431;51.352;6.412;2022-08-19T01:25:00;16.00;99.90
25536;DHT22;13431;51.352;6.412;2022-08-19T01:27:40;16.00;99.90
25536;DHT22;13431;51.352;6.412;2022-08-19T01:30:13;15.90;99.90
25536;DHT22;13431;51.352;6.412;2022-08-19T01:32:41;15.80;99.90
25536;DHT22;13431;51.352;6.412;2022-08-19T01:35:12;15.80;99.90
25536;DHT22;13431;51.352;6.412;2022-08-19T01:37:48;15.80;99.90
25536;DHT22;13431;51.352;6.412;2022-08-19T01:40:18;15.80;99.90
25536;DHT22;13431;51.352;6.412;2022-08-19T01:42:48;15.80;99.90
25536;DHT22;13431;51.352;6.412;2022-08-19T01:45:17;15.80;99.90
25536;DHT22;13431;51.352;6.412;2022-08-19T01:47:45;15.70;99.90
25536;DHT22;13431;51.352;6.412;2022-08-19T01:50:29;15.70;99.90
25536;DHT22;13431;51.352;6.412;2022-08-19T01:52:57;15.80;99.90
25536;DHT22;13431;51.352;6.412;2022-08-19T01:55:35;15.70;99.90
25536;DHT22;13431;51.352;6.412;2022-08-19T01:58:21;15.70;99.90
25536;DHT22;13431;51.352;6.412;2022-08-19T02:00:49;15.60;99.90
25536;DHT22;13431;51.352;6.412;2022-08-19T02:03:17;15.60;99.90
25536;DHT22;13431;51.352;6.412;2022-08-19T02:05:45;15.70;99.90
25536;DHT22;13431;51.352;6.412;2022-08-19T02:08:12;15.70;99.90
25536;DHT22;13431;51.352;6.412;2022-08-19T02:10:42;15.70;99.90
25536;DHT22;13431;51.352;6.412;2022-08-19T02:13:11;15.70;99.90
25536;DHT22;13431;51.352;6.412;2022-08-19T02:15:39;15.70;99.90
25536;DHT22;13431;51.352;6.412;2022-08-19T02:18:07;15.70;99.90
25536;DHT22;13431;51.352;6.412;2022-08-19T02:20:36;15.70;99.90
25536;DHT22;13431;51.352;6.412;2022-08-19T02:23:04;15.60;99.90
25536;DHT22;13431;51.352;6.412;2022-08-19T02:25:41;15.60;99.90
25536;DHT22;13431;51.352;6.412;2022-08-19T02:28:08;15.60;99.90
25536;DHT22;13431;51.352;6.412;2022-08-19T02:30:36;15.60;99.90
25536;DHT22;13431;51.352;6.412;2022-08-19T02:33:05;15.60;99.90
25536;DHT22;13431;51.352;6.412;2022-08-19T02:35:32;15.50;99.90
25536;DHT22;13431;51.352;6.412;2022-08-19T02:37:59;15.50;99.90
25536;DHT22;13431;51.352;6.412;2022-08-19T02:40:50;15.50;99.90
25536;DHT22;13431;51.352;6.412;2022-08-19T02:43:21;15.50;99.90
25536;DHT22;13431;51.352;6.412;2022-08-19T02:45:50;15.50;99.90
25536;DHT22;13431;51.352;6.412;2022-08-19T02:48:20;15.50;99.90
25536;DHT22;13431;51.352;6.412;2022-08-19T02:50:49;15.60;99.90
25536;DHT22;13431;51.352;6.412;2022-08-19T02:53:23;15.60;99.90
25536;DHT22;13431;51.352;6.412;2022-08-19T02:55:51;15.60;99.90
25536;DHT22;13431;51.352;6.412;2022-08-19T02:58:20;15.50;99.90
25536;DHT22;13431;51.352;6.412;2022-08-19T03:00:51;15.60;99.90
25536;DHT22;13431;51.352;6.412;2022-08-19T03:03:20;15.60;99.90
25536;DHT22;13431;51.352;6.412;2022-08-19T03:05:47;15.60;99.90
25536;DHT22;13431;51.352;6.412;2022-08-19T03:08:24;15.50;99.90
25536;DHT22;13431;51.352;6.412;2022-08-19T03:10:52;15.50;99.90
25536;DHT22;13431;51.352;6.412;2022-08-19T03:13:22;15.50;99.90
25536;DHT22;13431;51.352;6.412;2022-08-19T03:15:50;15.50;99.90
25536;DHT22;13431;51.352;6.412;2022-08-19T03:18:18;15.50;99.90
25536;DHT22;13431;51.352;6.412;2022-08-19T03:20:47;15.50;99.90
25536;DHT22;13431;51.352;6.412;2022-08-19T03:23:16;15.60;99.90
25536;DHT22;13431;51.352;6.412;2022-08-19T03:25:46;15.70;99.90
25536;DHT22;13431;51.352;6.412;2022-08-19T03:28:28;15.60;99.90
25536;DHT22;13431;51.352;6.412;2022-08-19T03:30:59;15.70;99.90
25536;DHT22;13431;51.352;6.412;2022-08-19T03:33:28;15.70;99.90
25536;DHT22;13431;51.352;6.412;2022-08-19T03:36:09;15.60;99.90
25536;DHT22;13431;51.352;6.412;2022-08-19T03:38:47;15.60;99.90
25536;DHT22;13431;51.352;6.412;2022-08-19T03:41:25;15.60;99.90
25536;DHT22;13431;51.352;6.412;2022-08-19T03:44:11;15.60;99.90
25536;DHT22;13431;51.352;6.412;2022-08-19T03:46:46;15.60;99.90
25536;DHT22;13431;51.352;6.412;2022-08-19T03:49:14;15.60;99.90
25536;DHT22;13431;51.352;6.412;2022-08-19T03:51:46;15.60;99.90
25536;DHT22;13431;51.352;6.412;2022-08-19T03:54:16;15.60;99.90
25536;DHT22;13431;51.352;6.412;2022-08-19T03:56:45;15.60;99.90
25536;DHT22;13431;51.352;6.412;2022-08-19T03:59:22;15.50;99.90
25536;DHT22;13431;51.352;6.412;2022-08-19T04:01:55;15.50;99.90
25536;DHT22;13431;51.352;6.412;2022-08-19T04:04:23;15.50;99.90
25536;DHT22;13431;51.352;6.412;2022-08-19T04:06:55;15.50;99.90
25536;DHT22;13431;51.352;6.412;2022-08-19T04:09:23;15.50;99.90
25536;DHT22;13431;51.352;6.412;2022-08-19T04:11:53;15.50;99.90
25536;DHT22;13431;51.352;6.412;2022-08-19T04:14:24;15.60;99.90
25536;DHT22;13431;51.352;6.412;2022-08-19T04:16:52;15.60;99.90
25536;DHT22;13431;51.352;6.412;2022-08-19T04:19:20;15.60;99.90
25536;DHT22;13431;51.352;6.412;2022-08-19T04:21:49;15.50;99.90
25536;DHT22;13431;51.352;6.412;2022-08-19T04:24:17;15.40;99.90
25536;DHT22;13431;51.352;6.412;2022-08-19T04:26:46;15.40;99.90
25536;DHT22;13431;51.352;6.412;2022-08-19T04:29:17;15.40;99.90
25536;DHT22;13431;51.352;6.412;2022-08-19T04:31:46;15.40;99.90
25536;DHT22;13431;51.352;6.412;2022-08-19T04:34:16;15.40;99.90
25536;DHT22;13431;51.352;6.412;2022-08-19T04:36:44;15.40;99.90
25536;DHT22;13431;51.352;6.412;2022-08-19T04:39:15;15.30;99.90
25536;DHT22;13431;51.352;6.412;2022-08-19T04:41:44;15.30;99.90
25536;DHT22;13431;51.352;6.412;2022-08-19T04:44:35;15.40;99.90
25536;DHT22;13431;51.352;6.412;2022-08-19T04:47:12;15.40;99.90
25536;DHT22;13431;51.352;6.412;2022-08-19T04:49:40;15.60;99.90
25536;DHT22;13431;51.352;6.412;2022-08-19T04:52:08;15.60;99.90
25536;DHT22;13431;51.352;6.412;2022-08-19T04:54:36;15.70;99.90
25536;DHT22;13431;51.352;6.412;2022-08-19T04:57:09;15.70;99.90
25536;DHT22;13431;51.352;6.412;2022-08-19T04:59:38;15.80;99.90
25536;DHT22;13431;51.352;6.412;2022-08-19T05:02:08;15.90;99.90
25536;DHT22;13431;51.352;6.412;2022-08-19T05:04:36;16.00;99.90
25536;DHT22;13431;51.352;6.412;2022-08-19T05:07:07;16.10;99.90
25536;DHT22;13431;51.352;6.412;2022-08-19T05:09:35;16.10;99.90
25536;DHT22;13431;51.352;6.412;2022-08-19T05:12:23;16.20;99.90
25536;DHT22;13431;51.352;6.412;2022-08-19T05:14:57;16.30;99.90
25536;DHT22;13431;51.352;6.412;2022-08-19T05:17:26;16.40;99.90
25536;DHT22;13431;51.352;6.412;2022-08-19T05:19:58;16.50;99.90
25536;DHT22;13431;51.352;6.412;2022-08-19T05:22:45;16.50;99.90
25536;DHT22;13431;51.352;6.412;2022-08-19T05:25:16;16.60;99.90
25536;DHT22;13431;51.352;6.412;2022-08-19T05:27:46;16.70;99.90
25536;DHT22;13431;51.352;6.412;2022-08-19T05:30:14;16.80;99.90
25536;DHT22;13431;51.352;6.412;2022-08-19T05:32:42;16.90;99.90
25536;DHT22;13431;51.352;6.412;2022-08-19T05:35:10;16.90;99.90
25536;DHT22;13431;51.352;6.412;2022-08-19T05:37:39;17.00;99.90
25536;DHT22;13431;51.352;6.412;2022-08-19T05:40:09;17.10;99.90
25536;DHT22;13431;51.352;6.412;2022-08-19T05:42:37;17.20;99.90
25536;DHT22;13431;51.352;6.412;2022-08-19T05:45:05;17.30;99.90
25536;DHT22;13431;51.352;6.412;2022-08-19T05:47:33;17.50;99.90
25536;DHT22;13431;51.352;6.412;2022-08-19T05:50:08;17.60;99.90
25536;DHT22;13431;51.352;6.412;2022-08-19T05:52:37;17.60;99.90
25536;DHT22;13431;51.352;6.412;2022-08-19T05:55:09;17.60;99.90
25536;DHT22;13431;51.352;6.412;2022-08-19T05:57:37;17.80;99.90
25536;DHT22;13431;51.352;6.412;2022-08-19T06:00:06;18.40;99.90
25536;DHT22;13431;51.352;6.412;2022-08-19T06:02:38;19.40;99.90
25536;DHT22;13431;51.352;6.412;2022-08-19T06:05:07;19.80;99.90
25536;DHT22;13431;51.352;6.412;2022-08-19T06:07:36;19.80;99.90
25536;DHT22;13431;51.352;6.412;2022-08-19T06:10:05;19.70;99.90
25536;DHT22;13431;51.352;6.412;2022-08-19T06:12:34;19.40;99.90
25536;DHT22;13431;51.352;6.412;2022-08-19T06:15:13;19.10;99.90
25536;DHT22;13431;51.352;6.412;2022-08-19T06:17:41;19.00;99.90
25536;DHT22;13431;51.352;6.412;2022-08-19T06:20:14;19.00;99.90
25536;DHT22;13431;51.352;6.412;2022-08-19T06:22:49;19.50;99.90
25536;DHT22;13431;51.352;6.412;2022-08-19T06:25:19;20.40;99.90
25536;DHT22;13431;51.352;6.412;2022-08-19T06:27:47;21.40;99.90
25536;DHT22;13431;51.352;6.412;2022-08-19T06:30:35;21.60;99.90
25536;DHT22;13431;51.352;6.412;2022-08-19T06:33:03;21.50;99.90
25536;DHT22;13431;51.352;6.412;2022-08-19T06:35:30;21.50;99.90
25536;DHT22;13431;51.352;6.412;2022-08-19T06:37:58;21.30;99.90
25536;DHT22;13431;51.352;6.412;2022-08-19T06:40:26;21.10;99.90
25536;DHT22;13431;51.352;6.412;2022-08-19T06:42:54;20.90;99.90
25536;DHT22;13431;51.352;6.412;2022-08-19T06:45:23;21.00;99.90
25536;DHT22;13431;51.352;6.412;2022-08-19T06:48:01;21.10;99.90
25536;DHT22;13431;51.352;6.412;2022-08-19T06:50:29;21.30;99.90
25536;DHT22;13431;51.352;6.412;2022-08-19T06:52:56;21.60;99.90
25536;DHT22;13431;51.352;6.412;2022-08-19T06:55:30;21.70;99.90
25536;DHT22;13431;51.352;6.412;2022-08-19T06:58:02;22.20;99.90
25536;DHT22;13431;51.352;6.412;2022-08-19T07:00:31;22.80;99.90
25536;DHT22;13431;51.352;6.412;2022-08-19T07:02:58;22.90;99.90
25536;DHT22;13431;51.352;6.412;2022-08-19T07:05:41;23.00;99.90
25536;DHT22;13431;51.352;6.412;2022-08-19T07:08:12;23.10;99.90
25536;DHT22;13431;51.352;6.412;2022-08-19T07:10:43;23.00;99.90
25536;DHT22;13431;51.352;6.412;2022-08-19T07:13:11;22.90;99.90
25536;DHT22;13431;51.352;6.412;2022-08-19T07:15:39;22.70;99.90
25536;DHT22;13431;51.352;6.412;2022-08-19T07:18:06;23.10;99.90
25536;DHT22;13431;51.352;6.412;2022-08-19T07:20:39;23.30;99.90
25536;DHT22;13431;51.352;6.412;2022-08-19T07:23:08;23.30;99.90
25536;DHT22;13431;51.352;6.412;2022-08-19T07:25:42;23.90;99.90
25536;DHT22;13431;51.352;6.412;2022-08-19T07:28:10;24.10;99.90
25536;DHT22;13431;51.352;6.412;2022-08-19T07:30:51;23.70;99.90
25536;DHT22;13431;51.352;6.412;2022-08-19T07:33:19;24.20;99.90
25536;DHT22;13431;51.352;6.412;2022-08-19T07:35:47;24.70;99.90
25536;DHT22;13431;51.352;6.412;2022-08-19T07:38:15;24.90;99.90
25536;DHT22;13431;51.352;6.412;2022-08-19T07:40:44;24.60;99.90
25536;DHT22;13431;51.352;6.412;2022-08-19T07:43:13;25.30;99.90
25536;DHT22;13431;51.352;6.412;2022-08-19T07:45:44;26.00;99.90
25536;DHT22;13431;51.352;6.412;2022-08-19T07:48:12;26.90;99.90
25536;DHT22;13431;51.352;6.412;2022-08-19T07:50:41;26.90;99.90
25536;DHT22;13431;51.352;6.412;2022-08-19T07:53:08;27.60;99.90
25536;DHT22;13431;51.352;6.412;2022-08-19T07:55:36;29.30;99.90
25536;DHT22;13431;51.352;6.412;2022-08-19T07:58:11;30.00;99.90
25536;DHT22;13431;51.352;6.412;2022-08-19T08:00:39;30.10;99.90
25536;DHT22;13431;51.352;6.412;2022-08-19T08:03:06;30.00;99.90
25536;DHT22;13431;51.352;6.412;2022-08-19T08:05:35;30.70;99.90
25536;DHT22;13431;51.352;6.412;2022-08-19T08:08:21;31.80;99.90
25536;DHT22;13431;51.352;6.412;2022-08-19T08:11:17;32.50;99.90
25536;DHT22;13431;51.352;6.412;2022-08-19T08:13:47;31.90;99.90
25536;DHT22;13431;51.352;6.412;2022-08-19T08:16:28;31.70;99.90
25536;DHT22;13431;51.352;6.412;2022-08-19T08:19:00;32.20;99.90
25536;DHT22;13431;51.352;6.412;2022-08-19T08:21:28;31.50;99.90
25536;DHT22;13431;51.352;6.412;2022-08-19T08:23:55;32.00;99.90
25536;DHT22;13431;51.352;6.412;2022-08-19T08:26:24;33.00;99.90
25536;DHT22;13431;51.352;6.412;2022-08-19T08:28:52;33.00;99.90
25536;DHT22;13431;51.352;6.412;2022-08-19T08:31:20;33.30;99.90
25536;DHT22;13431;51.352;6.412;2022-08-19T08:33:47;31.40;99.90
25536;DHT22;13431;51.352;6.412;2022-08-19T08:36:16;31.00;99.90
25536;DHT22;13431;51.352;6.412;2022-08-19T08:38:43;31.00;99.90
25536;DHT22;13431;51.352;6.412;2022-08-19T08:41:33;30.90;99.90
25536;DHT22;13431;51.352;6.412;2022-08-19T08:44:02;30.90;99.90
25536;DHT22;13431;51.352;6.412;2022-08-19T08:46:55;30.20;99.90
25536;DHT22;13431;51.352;6.412;2022-08-19T08:49:45;30.50;99.90
25536;DHT22;13431;51.352;6.412;2022-08-19T08:52:22;30.90;99.90
25536;DHT22;13431;51.352;6.412;2022-08-19T08:55:00;30.60;99.90
25536;DHT22;13431;51.352;6.412;2022-08-19T09:00:26;31.10;99.90
25536;DHT22;13431;51.352;6.412;2022-08-19T09:02:55;32.00;99.90
25536;DHT22;13431;51.352;6.412;2022-08-19T09:11:04;32.90;99.40
25536;DHT22;13431;51.352;6.412;2022-08-19T09:16:30;34.50;95.90
25536;DHT22;13431;51.352;6.412;2022-08-19T09:19:03;35.00;95.00
25536;DHT22;13431;51.352;6.412;2022-08-19T09:21:32;33.40;96.10
25536;DHT22;13431;51.352;6.412;2022-08-19T09:24:01;33.40;96.30
25536;DHT22;13431;51.352;6.412;2022-08-19T09:26:30;33.50;95.70
25536;DHT22;13431;51.352;6.412;2022-08-19T09:29:19;34.40;95.90
25536;DHT22;13431;51.352;6.412;2022-08-19T09:31:49;34.60;94.90
25536;DHT22;13431;51.352;6.412;2022-08-19T09:34:17;34.50;95.40
25536;DHT22;13431;51.352;6.412;2022-08-19T09:36:49;33.90;94.70
25536;DHT22;13431;51.352;6.412;2022-08-19T09:39:21;34.90;94.40
25536;DHT22;13431;51.352;6.412;2022-08-19T09:41:49;33.70;92.90
25536;DHT22;13431;51.352;6.412;2022-08-19T09:44:18;35.00;93.00
25536;DHT22;13431;51.352;6.412;2022-08-19T09:46:48;34.80;93.30
25536;DHT22;13431;51.352;6.412;2022-08-19T09:49:17;34.70;93.10
25536;DHT22;13431;51.352;6.412;2022-08-19T09:51:45;35.50;92.60
25536;DHT22;13431;51.352;6.412;2022-08-19T09:54:17;36.50;92.00
25536;DHT22;13431;51.352;6.412;2022-08-19T09:56:51;36.10;91.90
25536;DHT22;13431;51.352;6.412;2022-08-19T09:59:19;37.30;91.40
25536;DHT22;13431;51.352;6.412;2022-08-19T10:01:47;36.40;89.80
25536;DHT22;13431;51.352;6.412;2022-08-19T10:04:15;37.20;90.30
25536;DHT22;13431;51.352;6.412;2022-08-19T10:06:49;34.30;91.70
25536;DHT22;13431;51.352;6.412;2022-08-19T10:09:21;32.90;94.90
25536;DHT22;13431;51.352;6.412;2022-08-19T10:12:02;31.30;97.10
25536;DHT22;13431;51.352;6.412;2022-08-19T10:14:33;32.40;95.30
25536;DHT22;13431;51.352;6.412;2022-08-19T10:17:01;32.50;96.30
25536;DHT22;13431;51.352;6.412;2022-08-19T10:19:46;32.70;95.50
25536;DHT22;13431;51.352;6.412;2022-08-19T10:22:22;33.40;95.20
25536;DHT22;13431;51.352;6.412;2022-08-19T10:24:52;34.40;94.00
25536;DHT22;13431;51.352;6.412;2022-08-19T10:27:20;35.00;93.30
25536;DHT22;13431;51.352;6.412;2022-08-19T10:29:47;36.10;91.60
25536;DHT22;13431;51.352;6.412;2022-08-19T10:32:15;35.60;90.20
25536;DHT22;13431;51.352;6.412;2022-08-19T10:34:42;34.90;90.80
25536;DHT22;13431;51.352;6.412;2022-08-19T10:37:16;35.60;90.80
25536;DHT22;13431;51.352;6.412;2022-08-19T10:39:57;34.80;90.50
25536;DHT22;13431;51.352;6.412;2022-08-19T10:42:25;33.90;92.10
25536;DHT22;13431;51.352;6.412;2022-08-19T10:44:52;33.70;93.00
25536;DHT22;13431;51.352;6.412;2022-08-19T10:47:20;32.00;96.00
25536;DHT22;13431;51.352;6.412;2022-08-19T10:49:53;30.40;97.60
25536;DHT22;13431;51.352;6.412;2022-08-19T10:52:41;29.50;99.90
25536;DHT22;13431;51.352;6.412;2022-08-19T10:55:22;29.30;99.90
25536;DHT22;13431;51.352;6.412;2022-08-19T10:58:17;28.80;99.90
25536;DHT22;13431;51.352;6.412;2022-08-19T11:00:54;28.80;99.90
25536;DHT22;13431;51.352;6.412;2022-08-19T11:03:22;28.70;99.90
25536;DHT22;13431;51.352;6.412;2022-08-19T11:06:05;29.00;99.90
25536;DHT22;13431;51.352;6.412;2022-08-19T11:08:33;28.20;99.90
25536;DHT22;13431;51.352;6.412;2022-08-19T11:11:03;27.90;99.90
25536;DHT22;13431;51.352;6.412;2022-08-19T11:13:34;27.80;99.90
25536;DHT22;13431;51.352;6.412;2022-08-19T11:16:07;27.90;99.90
25536;DHT22;13431;51.352;6.412;2022-08-19T11:18:37;28.00;99.90
25536;DHT22;13431;51.352;6.412;2022-08-19T11:23:38;28.10;99.90
25536;DHT22;13431;51.352;6.412;2022-08-19T11:26:06;27.80;99.90
25536;DHT22;13431;51.352;6.412;2022-08-19T11:28:33;27.80;99.90
25536;DHT22;13431;51.352;6.412;2022-08-19T11:31:01;27.80;99.90
25536;DHT22;13431;51.352;6.412;2022-08-19T11:33:31;27.90;99.90
25536;DHT22;13431;51.352;6.412;2022-08-19T11:35:59;28.40;99.90
25536;DHT22;13431;51.352;6.412;2022-08-19T11:38:28;28.50;99.90
25536;DHT22;13431;51.352;6.412;2022-08-19T11:40:58;28.20;99.90
25536;DHT22;13431;51.352;6.412;2022-08-19T11:43:26;27.50;99.90
25536;DHT22;13431;51.352;6.412;2022-08-19T11:45:55;27.60;99.60
25536;DHT22;13431;51.352;6.412;2022-08-19T11:48:23;27.40;99.90
25536;DHT22;13431;51.352;6.412;2022-08-19T11:50:52;27.60;99.90
25536;DHT22;13431;51.352;6.412;2022-08-19T11:53:23;27.40;99.90
25536;DHT22;13431;51.352;6.412;2022-08-19T11:55:53;27.10;99.90
25536;DHT22;13431;51.352;6.412;2022-08-19T11:58:23;27.10;99.90
25536;DHT22;13431;51.352;6.412;2022-08-19T12:00:52;27.10;99.90
25536;DHT22;13431;51.352;6.412;2022-08-19T12:03:20;27.00;99.90
25536;DHT22;13431;51.352;6.412;2022-08-19T12:05:47;27.00;99.90
25536;DHT22;13431;51.352;6.412;2022-08-19T12:08:15;26.90;99.90
25536;DHT22;13431;51.352;6.412;2022-08-19T12:10:44;26.90;99.90
25536;DHT22;13431;51.352;6.412;2022-08-19T12:13:13;26.90;99.90
25536;DHT22;13431;51.352;6.412;2022-08-19T12:15:47;27.00;99.90
25536;DHT22;13431;51.352;6.412;2022-08-19T12:18:15;27.10;99.90
25536;DHT22;13431;51.352;6.412;2022-08-19T12:20:42;27.10;99.90
25536;DHT22;13431;51.352;6.412;2022-08-19T12:23:10;27.30;99.90
25536;DHT22;13431;51.352;6.412;2022-08-19T12:25:44;27.10;99.90
25536;DHT22;13431;51.352;6.412;2022-08-19T12:28:23;27.00;99.90
25536;DHT22;13431;51.352;6.412;2022-08-19T12:30:51;26.90;99.90
25536;DHT22;13431;51.352;6.412;2022-08-19T12:33:19;27.10;99.90
25536;DHT22;13431;51.352;6.412;2022-08-19T12:35:47;27.30;99.90
25536;DHT22;13431;51.352;6.412;2022-08-19T12:38:14;27.20;99.90
25536;DHT22;13431;51.352;6.412;2022-08-19T12:40:44;27.20;99.90
25536;DHT22;13431;51.352;6.412;2022-08-19T12:43:12;27.10;99.90
25536;DHT22;13431;51.352;6.412;2022-08-19T12:45:41;27.00;99.90
25536;DHT22;13431;51.352;6.412;2022-08-19T12:48:09;26.90;99.90
25536;DHT22;13431;51.352;6.412;2022-08-19T12:50:56;27.10;99.90
25536;DHT22;13431;51.352;6.412;2022-08-19T12:53:24;27.20;99.90
25536;DHT22;13431;51.352;6.412;2022-08-19T12:55:56;27.00;99.90
25536;DHT22;13431;51.352;6.412;2022-08-19T12:58:24;27.00;99.90
25536;DHT22;13431;51.352;6.412;2022-08-19T13:00:53;27.10;99.90
25536;DHT22;13431;51.352;6.412;2022-08-19T13:03:21;27.20;99.90
25536;DHT22;13431;51.352;6.412;2022-08-19T13:05:56;27.10;99.90
25536;DHT22;13431;51.352;6.412;2022-08-19T13:08:23;27.00;99.90
25536;DHT22;13431;51.352;6.412;2022-08-19T13:10:51;27.20;99.90
25536;DHT22;13431;51.352;6.412;2022-08-19T13:13:18;27.00;99.90
25536;DHT22;13431;51.352;6.412;2022-08-19T13:15:46;27.00;99.90
25536;DHT22;13431;51.352;6.412;2022-08-19T13:18:14;26.80;99.90
25536;DHT22;13431;51.352;6.412;2022-08-19T13:20:42;26.90;99.90
25536;DHT22;13431;51.352;6.412;2022-08-19T13:23:18;27.00;99.90
25536;DHT22;13431;51.352;6.412;2022-08-19T13:25:56;27.00;99.90
25536;DHT22;13431;51.352;6.412;2022-08-19T13:28:24;27.20;99.90
25536;DHT22;13431;51.352;6.412;2022-08-19T13:30:55;27.10;99.90
25536;DHT22;13431;51.352;6.412;2022-08-19T13:33:41;26.90;99.90
25536;DHT22;13431;51.352;6.412;2022-08-19T13:36:08;26.80;99.90
25536;DHT22;13431;51.352;6.412;2022-08-19T13:38:37;26.40;99.90
25536;DHT22;13431;51.352;6.412;2022-08-19T13:41:05;26.40;99.90
25536;DHT22;13431;51.352;6.412;2022-08-19T13:43:38;26.50;99.90
25536;DHT22;13431;51.352;6.412;2022-08-19T13:46:09;26.60;99.90
25536;DHT22;13431;51.352;6.412;2022-08-19T13:48:37;26.50;99.90
25536;DHT22;13431;51.352;6.412;2022-08-19T13:51:05;26.40;99.90
25536;DHT22;13431;51.352;6.412;2022-08-19T13:53:32;26.50;99.90
25536;DHT22;13431;51.352;6.412;2022-08-19T13:56:00;26.40;99.90
25536;DHT22;13431;51.352;6.412;2022-08-19T13:58:27;26.40;99.90
25536;DHT22;13431;51.352;6.412;2022-08-19T14:00:54;26.30;99.90
25536;DHT22;13431;51.352;6.412;2022-08-19T14:03:22;26.40;99.90
25536;DHT22;13431;51.352;6.412;2022-08-19T14:05:50;26.40;99.90
25536;DHT22;13431;51.352;6.412;2022-08-19T14:08:18;26.30;99.90
25536;DHT22;13431;51.352;6.412;2022-08-19T14:10:45;26.20;99.90
25536;DHT22;13431;51.352;6.412;2022-08-19T14:13:19;26.10;99.90
25536;DHT22;13431;51.352;6.412;2022-08-19T14:15:47;26.00;99.90
25536;DHT22;13431;51.352;6.412;2022-08-19T14:18:16;26.30;99.90
25536;DHT22;13431;51.352;6.412;2022-08-19T14:20:44;26.20;99.90
25536;DHT22;13431;51.352;6.412;2022-08-19T14:23:11;26.00;99.90
25536;DHT22;13431;51.352;6.412;2022-08-19T14:25:41;26.00;99.90
25536;DHT22;13431;51.352;6.412;2022-08-19T14:28:08;25.90;99.90
25536;DHT22;13431;51.352;6.412;2022-08-19T14:30:37;26.00;99.90
25536;DHT22;13431;51.352;6.412;2022-08-19T14:33:05;26.00;99.90
25536;DHT22;13431;51.352;6.412;2022-08-19T14:35:34;25.90;99.90
25536;DHT22;13431;51.352;6.412;2022-08-19T14:38:04;25.80;99.90
25536;DHT22;13431;51.352;6.412;2022-08-19T14:40:32;25.80;99.90
25536;DHT22;13431;51.352;6.412;2022-08-19T14:43:02;25.70;99.90
25536;DHT22;13431;51.352;6.412;2022-08-19T14:45:33;25.70;99.90
25536;DHT22;13431;51.352;6.412;2022-08-19T14:48:04;25.80;99.90
25536;DHT22;13431;51.352;6.412;2022-08-19T14:50:32;25.70;99.90
25536;DHT22;13431;51.352;6.412;2022-08-19T14:53:02;25.70;99.90
25536;DHT22;13431;51.352;6.412;2022-08-19T14:55:46;25.70;99.90
25536;DHT22;13431;51.352;6.412;2022-08-19T14:58:14;25.60;99.90
25536;DHT22;13431;51.352;6.412;2022-08-19T15:00:58;25.60;99.90
25536;DHT22;13431;51.352;6.412;2022-08-19T15:03:26;25.60;99.90
25536;DHT22;13431;51.352;6.412;2022-08-19T15:05:54;25.50;99.90
25536;DHT22;13431;51.352;6.412;2022-08-19T15:08:26;25.40;99.90
25536;DHT22;13431;51.352;6.412;2022-08-19T15:10:55;25.40;99.90
25536;DHT22;13431;51.352;6.412;2022-08-19T15:13:23;25.40;99.90
25536;DHT22;13431;51.352;6.412;2022-08-19T15:15:51;25.40;99.90
25536;DHT22;13431;51.352;6.412;2022-08-19T15:18:19;25.40;99.90
25536;DHT22;13431;51.352;6.412;2022-08-19T15:20:48;25.40;99.90
25536;DHT22;13431;51.352;6.412;2022-08-19T15:23:17;25.30;99.90
25536;DHT22;13431;51.352;6.412;2022-08-19T15:25:45;25.30;99.90
25536;DHT22;13431;51.352;6.412;2022-08-19T15:28:13;25.50;99.90
25536;DHT22;13431;51.352;6.412;2022-08-19T15:30:43;25.40;99.90
25536;DHT22;13431;51.352;6.412;2022-08-19T15:33:11;25.40;99.90
25536;DHT22;13431;51.352;6.412;2022-08-19T15:35:42;25.20;99.90
25536;DHT22;13431;51.352;6.412;2022-08-19T15:38:10;25.30;99.90
25536;DHT22;13431;51.352;6.412;2022-08-19T15:40:41;25.30;99.90
25536;DHT22;13431;51.352;6.412;2022-08-19T15:43:08;25.40;99.90
25536;DHT22;13431;51.352;6.412;2022-08-19T15:45:37;25.50;99.90
25536;DHT22;13431;51.352;6.412;2022-08-19T15:48:06;25.40;99.90
25536;DHT22;13431;51.352;6.412;2022-08-19T15:50:34;25.40;99.90
25536;DHT22;13431;51.352;6.412;2022-08-19T15:53:07;25.50;99.90
25536;DHT22;13431;51.352;6.412;2022-08-19T15:55:41;25.60;99.90
25536;DHT22;13431;51.352;6.412;2022-08-19T15:58:12;25.50;99.90
25536;DHT22;13431;51.352;6.412;2022-08-19T16:01:04;25.50;99.90
25536;DHT22;13431;51.352;6.412;2022-08-19T16:03:55;25.70;99.90
25536;DHT22;13431;51.352;6.412;2022-08-19T16:06:45;25.70;99.90
25536;DHT22;13431;51.352;6.412;2022-08-19T16:09:14;25.70;99.90